createdAt,value
2023-04-12T00:00:12.572Z,6.37
2023-04-12T00:02:42.368Z,6.34
2023-04-12T00:05:11.514Z,6.32
2023-04-12T00:07:41.102Z,6.34
2023-04-12T00:10:09.568Z,6.35
2023-04-12T00:12:36.610Z,6.35
2023-04-12T00:15:04.130Z,6.31
2023-04-12T00:17:32.262Z,6.21
2023-04-12T00:19:59.337Z,6.16
2023-04-12T00:22:26.823Z,6.11
2023-04-12T00:24:56.359Z,6.11
2023-04-12T00:27:23.400Z,6.10
2023-04-12T00:29:50.358Z,6.10
2023-04-12T00:32:17.391Z,6.05
2023-04-12T00:34:44.268Z,5.97
2023-04-12T00:56:41.506Z,5.54
2023-04-12T00:59:08.744Z,5.54
2023-04-12T01:01:35.604Z,5.50
2023-04-12T01:04:04.968Z,5.47
2023-04-12T01:06:41.031Z,5.49
2023-04-12T01:09:30.466Z,5.56
2023-04-12T01:12:05.272Z,5.62
2023-04-12T01:15:08.340Z,5.59
2023-04-12T01:17:54.823Z,5.84
2023-04-12T01:20:26.149Z,5.69
2023-04-12T01:23:15.876Z,5.50
2023-04-12T01:26:08.298Z,5.31
2023-04-12T01:28:42.392Z,5.18
2023-04-12T01:31:10.664Z,5.13
2023-04-12T01:33:39.081Z,5.11
2023-04-12T01:36:16.138Z,5.02
2023-04-12T01:38:48.041Z,4.88
2023-04-12T01:41:15.234Z,4.85
2023-04-12T01:43:46.281Z,4.87
2023-04-12T01:46:17.332Z,4.79
2023-04-12T01:48:51.101Z,4.72
2023-04-12T01:51:34.791Z,4.65
2023-04-12T01:54:12.234Z,4.69
2023-04-12T01:56:45.041Z,4.64
2023-04-12T01:59:14.863Z,4.61
2023-04-12T02:01:44.074Z,4.60
2023-04-12T02:04:11.818Z,4.61
2023-04-12T02:06:39.889Z,4.58
2023-04-12T02:09:09.904Z,4.52
2023-04-12T02:11:36.893Z,4.49
2023-04-12T02:14:06.634Z,4.44
2023-04-12T02:16:34.871Z,4.52
2023-04-12T02:19:02.231Z,4.55
2023-04-12T02:21:33.787Z,4.69
2023-04-12T02:24:04.633Z,4.67
2023-04-12T02:26:31.707Z,4.78
2023-04-12T02:28:58.660Z,4.77
2023-04-12T02:34:33.531Z,4.69
2023-04-12T02:37:18.960Z,4.62
2023-04-12T02:39:52.584Z,4.55
2023-04-12T02:42:20.750Z,4.43
2023-04-12T02:44:49.106Z,4.40
2023-04-12T02:47:16.412Z,4.37
2023-04-12T02:49:47.155Z,4.34
2023-04-12T02:52:17.155Z,4.35
2023-04-12T02:55:05.996Z,4.40
2023-04-12T02:57:33.526Z,4.44
2023-04-12T03:00:01.896Z,4.49
2023-04-12T03:02:45.180Z,4.48
2023-04-12T03:05:23.413Z,4.54
2023-04-12T03:07:53.796Z,4.53
2023-04-12T03:10:26.510Z,4.50
2023-04-12T03:13:02.517Z,4.52
2023-04-12T03:15:34.096Z,4.60
2023-04-12T03:18:02.036Z,4.69
2023-04-12T03:20:33.719Z,4.80
2023-04-12T03:23:08.796Z,4.90
2023-04-12T03:25:39.151Z,5.01
2023-04-12T03:28:45.965Z,5.17
2023-04-12T03:31:13.451Z,5.34
2023-04-12T03:33:43.253Z,5.45
2023-04-12T03:36:23.215Z,5.60
2023-04-12T03:39:00.138Z,5.73
2023-04-12T03:41:32.962Z,5.72
2023-04-12T03:44:03.982Z,5.92
2023-04-12T03:46:35.863Z,6.07
2023-04-12T03:49:07.670Z,6.05
2023-04-12T03:51:35.925Z,6.12
2023-04-12T03:54:09.181Z,6.19
2023-04-12T03:56:46.119Z,6.20
2023-04-12T03:59:23.479Z,6.24
2023-04-12T04:01:51.038Z,6.30
2023-04-12T04:04:23.060Z,6.34
2023-04-12T04:06:55.572Z,6.38
2023-04-12T04:09:23.613Z,6.50
2023-04-12T04:11:52.292Z,6.62
2023-04-12T04:14:21.643Z,6.65
2023-04-12T04:16:54.224Z,6.77
2023-04-12T04:19:28.351Z,6.82
2023-04-12T04:21:56.487Z,6.90
2023-04-12T04:24:26.209Z,7.05
2023-04-12T04:26:58.963Z,7.20
2023-04-12T04:29:28.751Z,7.39
2023-04-12T04:31:58.038Z,7.48
2023-04-12T04:34:26.423Z,7.54
2023-04-12T04:37:01.027Z,7.65
2023-04-12T04:39:29.466Z,7.76
2023-04-12T04:45:24.711Z,7.99
2023-04-12T04:47:54.047Z,8.12
2023-04-12T04:50:25.569Z,8.22
2023-04-12T04:52:53.575Z,8.31
2023-04-12T04:55:23.482Z,8.45
2023-04-12T04:57:55.708Z,8.57
2023-04-12T05:00:25.979Z,8.72
2023-04-12T05:02:56.865Z,8.84
2023-04-12T05:05:31.582Z,9.08
2023-04-12T05:08:05.757Z,9.20
2023-04-12T05:10:37.808Z,9.33
2023-04-12T05:13:10.367Z,9.48
2023-04-12T05:15:40.715Z,9.62
2023-04-12T05:18:08.039Z,9.75
2023-04-12T05:20:35.115Z,9.87
2023-04-12T05:23:02.540Z,9.96
2023-04-12T05:25:29.712Z,9.99
2023-04-12T05:28:04.841Z,10.12
2023-04-12T05:30:32.906Z,10.29
2023-04-12T05:33:05.489Z,10.39
2023-04-12T05:35:34.115Z,10.52
2023-04-12T05:38:01.228Z,10.61
2023-04-12T05:40:28.558Z,10.76
2023-04-12T05:42:59.401Z,10.82
2023-04-12T05:45:30.135Z,10.93
2023-04-12T05:47:59.625Z,11.02
2023-04-12T05:50:26.945Z,11.04
2023-04-12T05:52:55.261Z,11.21
2023-04-12T05:55:28.248Z,11.32
2023-04-12T05:57:55.520Z,11.40
2023-04-12T06:00:23.589Z,11.58
2023-04-12T06:02:56.945Z,11.50
2023-04-12T06:05:42.802Z,11.73
2023-04-12T06:08:10.460Z,11.73
2023-04-12T06:10:37.542Z,11.88
2023-04-12T06:13:04.954Z,12.12
2023-04-12T06:15:33.738Z,12.22
2023-04-12T06:18:03.604Z,12.20
2023-04-12T06:20:30.858Z,12.29
2023-04-12T06:22:58.102Z,12.43
2023-04-12T06:25:26.088Z,12.68
2023-04-12T06:27:58.080Z,12.74
2023-04-12T06:30:28.134Z,12.74
2023-04-12T06:32:55.356Z,12.74
2023-04-12T06:35:25.623Z,12.91
2023-04-12T06:37:52.863Z,12.88
2023-04-12T06:40:19.861Z,13.01
2023-04-12T06:42:47.001Z,13.25
2023-04-12T06:45:23.340Z,13.33
2023-04-12T06:47:50.613Z,13.50
2023-04-12T06:50:18.669Z,13.57
2023-04-12T06:52:47.144Z,13.52
2023-04-12T06:55:14.794Z,13.49
2023-04-12T06:57:43.252Z,13.42
2023-04-12T07:00:14.026Z,13.50
2023-04-12T07:02:41.389Z,13.66
2023-04-12T07:05:09.877Z,13.64
2023-04-12T07:07:40.098Z,13.83
2023-04-12T07:10:07.786Z,13.71
2023-04-12T07:12:34.758Z,13.98
2023-04-12T07:15:02.795Z,13.86
2023-04-12T07:17:30.383Z,14.01
2023-04-12T07:20:25.787Z,14.39
2023-04-12T07:22:52.620Z,14.51
2023-04-12T07:25:19.545Z,14.62
2023-04-12T07:27:46.605Z,14.83
2023-04-12T07:30:13.874Z,14.81
2023-04-12T07:32:41.025Z,14.76
2023-04-12T07:35:08.621Z,14.95
2023-04-12T07:37:36.055Z,15.06
2023-04-12T07:40:12.931Z,15.01
2023-04-12T07:42:45.409Z,15.02
2023-04-12T07:45:12.648Z,15.08
2023-04-12T07:47:39.736Z,15.15
2023-04-12T07:50:09.527Z,15.40
2023-04-12T07:52:42.247Z,15.68
2023-04-12T07:55:10.322Z,15.76
2023-04-12T07:57:38.089Z,16.06
2023-04-12T08:00:06.119Z,16.21
2023-04-12T08:02:43.134Z,16.44
2023-04-12T08:05:10.655Z,16.72
2023-04-12T08:07:37.757Z,16.78
2023-04-12T08:10:05.077Z,16.72
2023-04-12T08:12:32.053Z,16.79
2023-04-12T08:15:03.604Z,17.01
2023-04-12T08:17:30.956Z,17.19
2023-04-12T08:19:57.863Z,17.20
2023-04-12T08:22:25.245Z,17.44
2023-04-12T08:24:52.835Z,17.52
2023-04-12T08:27:20.295Z,17.88
2023-04-12T08:29:47.389Z,18.18
2023-04-12T08:32:14.419Z,18.28
2023-04-12T08:34:42.064Z,18.61
2023-04-12T08:37:10.873Z,18.74
2023-04-12T08:39:37.844Z,19.01
2023-04-12T08:42:10.837Z,19.49
2023-04-12T08:44:39.817Z,19.87
2023-04-12T08:47:10.904Z,20.09
2023-04-12T08:49:38.496Z,20.33
2023-04-12T08:52:07.274Z,20.67
2023-04-12T08:54:34.827Z,20.35
2023-04-12T08:57:04.723Z,20.40
2023-04-12T08:59:33.193Z,20.52
2023-04-12T09:02:00.841Z,20.82
2023-04-12T09:04:28.042Z,21.03
2023-04-12T09:06:55.421Z,21.20
2023-04-12T09:09:43.392Z,21.29
2023-04-12T09:12:11.412Z,21.35
2023-04-12T09:14:39.525Z,21.45
2023-04-12T09:17:25.088Z,21.49
2023-04-12T09:19:53.401Z,21.70
2023-04-12T09:22:33.332Z,21.95
2023-04-12T09:25:01.036Z,22.45
2023-04-12T09:27:29.996Z,22.88
2023-04-12T09:30:13.198Z,22.77
2023-04-12T09:32:40.332Z,23.00
2023-04-12T09:35:07.887Z,23.33
2023-04-12T09:37:35.331Z,23.44
2023-04-12T09:40:04.690Z,23.51
2023-04-12T09:42:35.102Z,23.73
2023-04-12T09:45:24.624Z,23.68
2023-04-12T09:47:54.846Z,23.19
2023-04-12T09:50:28.624Z,22.98
2023-04-12T09:52:56.922Z,22.94
2023-04-12T09:55:26.368Z,23.61
2023-04-12T09:57:55.574Z,24.13
2023-04-12T10:00:25.532Z,24.23
2023-04-12T10:02:54.667Z,24.34
2023-04-12T10:05:28.271Z,24.88
2023-04-12T10:07:58.609Z,25.07
2023-04-12T10:10:33.869Z,24.93
2023-04-12T10:13:19.396Z,24.44
2023-04-12T10:15:53.317Z,24.58
2023-04-12T10:18:24.230Z,24.50
2023-04-12T10:20:51.551Z,24.85
2023-04-12T10:23:24.570Z,25.16
2023-04-12T10:25:55.620Z,24.96
2023-04-12T10:28:23.634Z,25.12
2023-04-12T10:30:57.486Z,25.60
2023-04-12T10:33:31.848Z,25.97
2023-04-12T10:36:08.937Z,26.41
2023-04-12T10:39:09.843Z,26.47
2023-04-12T10:41:37.668Z,26.28
2023-04-12T10:44:26.319Z,26.31
2023-04-12T10:46:53.490Z,26.46
2023-04-12T10:49:39.471Z,26.09
2023-04-12T10:52:14.191Z,26.26
2023-04-12T10:54:41.783Z,26.84
2023-04-12T10:57:44.177Z,26.90
2023-04-12T11:00:11.734Z,27.19
2023-04-12T11:03:06.367Z,27.10
2023-04-12T11:06:20.027Z,26.87
2023-04-12T11:09:42.133Z,27.27
2023-04-12T11:12:15.543Z,27.15
2023-04-12T11:14:50.106Z,26.94
2023-04-12T11:17:21.741Z,27.26
2023-04-12T11:20:00.553Z,27.54
2023-04-12T11:22:30.265Z,27.63
2023-04-12T11:25:01.868Z,27.77
2023-04-12T11:27:32.030Z,27.72
2023-04-12T11:29:59.991Z,27.58
2023-04-12T11:32:29.542Z,26.95
2023-04-12T11:34:58.067Z,27.46
2023-04-12T11:37:32.383Z,27.20
2023-04-12T11:40:00.516Z,27.49
2023-04-12T11:42:30.429Z,27.27
2023-04-12T11:45:02.516Z,27.14
2023-04-12T11:47:36.321Z,27.85
2023-04-12T11:50:03.934Z,28.00
2023-04-12T11:52:32.608Z,27.41
2023-04-12T11:55:11.348Z,27.41
2023-04-12T11:57:39.669Z,27.69
2023-04-12T12:00:10.273Z,27.54
2023-04-12T12:02:46.577Z,27.35
2023-04-12T12:05:20.434Z,28.43
2023-04-12T12:07:47.779Z,28.87
2023-04-12T12:10:32.547Z,28.59
2023-04-12T12:13:12.968Z,28.87
2023-04-12T12:15:44.789Z,28.70
2023-04-12T12:18:12.135Z,29.17
2023-04-12T12:20:52.576Z,28.90
2023-04-12T12:23:32.433Z,28.26
2023-04-12T12:26:18.392Z,28.59
2023-04-12T12:28:56.535Z,28.72
2023-04-12T12:31:45.651Z,29.30
2023-04-12T12:34:14.251Z,28.59
2023-04-12T12:36:41.399Z,28.63
2023-04-12T12:39:11.020Z,28.47
2023-04-12T12:41:43.276Z,28.76
2023-04-12T12:44:11.612Z,29.01
2023-04-12T12:46:53.465Z,28.56
2023-04-12T12:49:20.991Z,28.00
2023-04-12T12:51:48.158Z,27.85
2023-04-12T12:54:31.761Z,28.62
2023-04-12T12:57:32.083Z,29.70
2023-04-12T12:59:59.042Z,30.59
2023-04-12T13:02:26.395Z,30.39
2023-04-12T13:04:57.646Z,29.81
2023-04-12T13:07:24.788Z,29.95
2023-04-12T13:09:51.792Z,29.13
2023-04-12T13:12:21.474Z,29.34
2023-04-12T13:14:48.939Z,29.42
2023-04-12T13:17:18.967Z,29.21
2023-04-12T13:19:47.006Z,29.60
2023-04-12T13:22:17.155Z,29.90
2023-04-12T13:24:44.167Z,29.82
2023-04-12T13:27:12.727Z,30.10
2023-04-12T13:29:43.430Z,30.18
2023-04-12T13:32:10.556Z,29.95
2023-04-12T13:34:37.888Z,29.33
2023-04-12T13:37:04.877Z,29.82
2023-04-12T13:39:33.774Z,30.17
2023-04-12T13:42:02.443Z,30.19
2023-04-12T13:44:36.877Z,29.72
2023-04-12T13:47:04.729Z,29.46
2023-04-12T13:49:31.687Z,29.28
2023-04-12T13:52:02.952Z,29.74
2023-04-12T13:54:31.035Z,29.93
2023-04-12T13:56:58.549Z,29.50
2023-04-12T13:59:28.517Z,29.35
2023-04-12T14:01:56.250Z,29.08
2023-04-12T14:04:23.379Z,28.67
2023-04-12T14:06:50.362Z,28.53
2023-04-12T14:09:34.558Z,28.82
2023-04-12T14:12:03.970Z,28.50
2023-04-12T14:14:33.587Z,28.53
2023-04-12T14:17:02.154Z,27.79
2023-04-12T14:19:29.714Z,27.67
2023-04-12T14:21:57.029Z,27.63
2023-04-12T14:24:26.867Z,27.95
2023-04-12T14:26:54.550Z,28.32
2023-04-12T14:29:21.421Z,28.17
2023-04-12T14:31:48.852Z,27.62
2023-04-12T14:34:15.887Z,27.02
2023-04-12T14:36:42.948Z,25.67
2023-04-12T14:39:13.896Z,24.89
2023-04-12T14:41:42.199Z,24.49
2023-04-12T14:44:09.099Z,24.22
2023-04-12T14:46:36.513Z,23.97
2023-04-12T14:49:03.456Z,23.90
2023-04-12T14:51:30.556Z,23.87
2023-04-12T14:54:00.417Z,23.84
2023-04-12T14:56:30.509Z,23.85
2023-04-12T14:58:58.285Z,23.52
2023-04-12T15:01:25.792Z,23.12
2023-04-12T15:03:56.201Z,22.80
2023-04-12T15:06:26.143Z,22.60
2023-04-12T15:08:57.696Z,22.60
2023-04-12T15:11:27.478Z,22.59
2023-04-12T15:13:55.448Z,22.16
2023-04-12T15:16:23.719Z,21.47
2023-04-12T15:18:51.512Z,20.91
2023-04-12T15:21:18.867Z,20.17
2023-04-12T15:23:46.226Z,19.83
2023-04-12T15:26:14.511Z,19.72
2023-04-12T15:28:42.508Z,19.44
2023-04-12T15:31:12.111Z,19.18
2023-04-12T15:33:39.249Z,18.83
2023-04-12T15:36:06.700Z,18.45
2023-04-12T15:38:43.343Z,18.30
2023-04-12T15:41:13.773Z,18.11
2023-04-12T15:43:42.264Z,17.93
2023-04-12T15:46:11.843Z,17.71
2023-04-12T15:48:39.017Z,17.63
2023-04-12T15:51:14.297Z,17.42
2023-04-12T15:53:43.548Z,17.14
2023-04-12T15:56:18.396Z,16.93
2023-04-12T15:58:46.196Z,16.83
2023-04-12T16:01:13.261Z,16.64
2023-04-12T16:03:41.962Z,16.57
2023-04-12T16:06:09.256Z,16.41
2023-04-12T16:08:36.286Z,16.26
2023-04-12T16:11:06.318Z,16.06
2023-04-12T16:13:33.386Z,16.04
2023-04-12T16:16:00.628Z,15.91
2023-04-12T16:18:30.998Z,15.80
2023-04-12T16:20:58.422Z,15.60
2023-04-12T16:23:25.497Z,15.49
2023-04-12T16:25:52.706Z,15.49
2023-04-12T16:28:20.789Z,15.32
2023-04-12T16:30:49.697Z,15.15
2023-04-12T16:33:17.058Z,15.20
2023-04-12T16:36:04.685Z,15.20
2023-04-12T16:38:33.041Z,15.05
2023-04-12T16:41:00.207Z,14.97
2023-04-12T16:43:27.618Z,14.85
2023-04-12T16:45:55.729Z,14.69
2023-04-12T16:48:26.337Z,14.64
2023-04-12T16:50:55.256Z,14.55
2023-04-12T16:53:22.426Z,14.40
2023-04-12T16:55:49.467Z,14.45
2023-04-12T16:58:22.551Z,14.50
2023-04-12T17:00:59.112Z,14.36
2023-04-12T17:03:27.005Z,14.36
2023-04-12T17:06:03.263Z,14.31
2023-04-12T17:08:32.094Z,14.22
2023-04-12T17:11:01.663Z,14.05
2023-04-12T17:13:30.344Z,14.06
2023-04-12T17:16:00.366Z,14.02
2023-04-12T17:18:27.430Z,13.95
2023-04-12T17:20:56.180Z,13.93
2023-04-12T17:23:24.921Z,13.88
2023-04-12T17:25:54.745Z,13.76
2023-04-12T17:28:21.897Z,13.70
2023-04-12T17:30:49.356Z,13.55
2023-04-12T17:33:18.317Z,13.47
2023-04-12T17:38:37.518Z,13.32
2023-04-12T17:41:04.964Z,13.31
2023-04-12T17:43:33.345Z,13.13
2023-04-12T17:46:03.809Z,13.11
2023-04-12T17:48:31.606Z,13.08
2023-04-12T17:50:59.965Z,13.07
2023-04-12T17:53:29.466Z,13.02
2023-04-12T17:55:59.880Z,12.95
2023-04-12T17:58:45.633Z,12.95
2023-04-12T18:01:14.455Z,12.76
2023-04-12T18:03:41.964Z,12.74
2023-04-12T18:06:46.293Z,12.73
2023-04-12T18:09:13.894Z,12.62
2023-04-12T18:11:43.376Z,12.58
2023-04-12T18:14:13.858Z,12.58
2023-04-12T18:16:41.412Z,12.55
2023-04-12T18:19:30.146Z,12.44
2023-04-12T18:21:58.967Z,12.44
2023-04-12T18:24:26.579Z,12.44
2023-04-12T18:26:54.867Z,12.44
2023-04-12T18:29:22.017Z,12.39
2023-04-12T18:31:49.026Z,12.43
2023-04-12T18:34:29.155Z,12.31
2023-04-12T18:37:04.132Z,12.17
2023-04-12T18:39:37.616Z,11.96
2023-04-12T18:42:06.521Z,11.78
2023-04-12T18:44:34.762Z,11.68
2023-04-12T18:47:01.938Z,11.72
2023-04-12T18:49:47.511Z,11.68
2023-04-12T18:52:17.384Z,11.59
2023-04-12T18:54:44.492Z,11.69
2023-04-12T18:57:18.768Z,11.56
2023-04-12T18:59:49.151Z,11.54
2023-04-12T19:02:21.233Z,11.44
2023-04-12T19:04:51.524Z,11.29
2023-04-12T19:07:18.896Z,11.26
2023-04-12T19:09:47.181Z,11.11
2023-04-12T19:12:14.338Z,11.21
2023-04-12T19:14:42.586Z,11.25
2023-04-12T19:17:10.778Z,11.20
2023-04-12T19:19:38.027Z,11.26
2023-04-12T19:22:07.685Z,11.25
2023-04-12T19:24:54.484Z,11.30
2023-04-12T19:27:22.973Z,11.23
2023-04-12T19:29:51.761Z,11.17
2023-04-12T19:32:19.438Z,11.11
2023-04-12T19:34:53.955Z,11.04
2023-04-12T19:37:21.722Z,11.06
2023-04-12T19:39:50.512Z,11.15
2023-04-12T19:42:17.796Z,11.04
2023-04-12T19:44:44.895Z,11.05
2023-04-12T19:47:11.943Z,10.90
2023-04-12T19:49:39.359Z,11.01
2023-04-12T19:52:27.036Z,11.06
2023-04-12T19:54:56.993Z,10.90
2023-04-12T19:57:25.112Z,10.90
2023-04-12T19:59:52.658Z,10.87
2023-04-12T20:02:20.373Z,10.75
2023-04-12T20:04:49.506Z,10.64
2023-04-12T20:07:16.706Z,10.60
2023-04-12T20:09:48.458Z,10.54
2023-04-12T20:12:16.758Z,10.42
2023-04-12T20:14:46.875Z,10.31
2023-04-12T20:17:16.654Z,10.30
2023-04-12T20:19:43.513Z,10.29
2023-04-12T20:22:10.671Z,10.30
2023-04-12T20:24:40.387Z,10.26
2023-04-12T20:27:09.853Z,10.24
2023-04-12T20:29:36.961Z,10.21
2023-04-12T20:32:04.508Z,10.18
2023-04-12T20:34:34.639Z,10.15
2023-04-12T20:37:02.172Z,10.15
2023-04-12T20:39:29.654Z,10.14
2023-04-12T20:42:01.137Z,10.22
2023-04-12T20:44:28.562Z,10.26
2023-04-12T20:46:55.591Z,10.24
2023-04-12T20:49:22.556Z,10.20
2023-04-12T20:51:50.985Z,10.21
2023-04-12T20:54:20.030Z,10.20
2023-04-12T20:56:46.983Z,10.19
2023-04-12T20:59:14.333Z,10.18
2023-04-12T21:01:43.322Z,10.22
2023-04-12T21:04:33.311Z,10.15
2023-04-12T21:07:07.836Z,10.16
2023-04-12T21:09:35.483Z,10.07
2023-04-12T21:12:06.200Z,10.09
2023-04-12T21:14:36.135Z,10.07
2023-04-12T21:17:07.412Z,10.11
2023-04-12T21:19:42.018Z,10.16
2023-04-12T21:22:09.243Z,10.24
2023-04-12T21:24:38.628Z,10.31
2023-04-12T21:27:09.272Z,10.30
2023-04-12T21:29:41.343Z,10.28
2023-04-12T21:32:12.266Z,10.30
2023-04-12T21:34:45.916Z,10.24
2023-04-12T21:37:15.930Z,10.24
2023-04-12T21:39:44.793Z,10.20
2023-04-12T21:42:11.760Z,10.14
2023-04-12T21:44:42.069Z,10.08
2023-04-12T21:47:09.245Z,10.01
2023-04-12T21:49:36.169Z,10.07
2023-04-12T21:52:08.299Z,10.08
2023-04-12T21:54:37.164Z,10.03
2023-04-12T21:57:04.890Z,9.97
2023-04-12T21:59:31.745Z,9.95
2023-04-12T22:01:58.720Z,9.95
2023-04-12T22:04:25.771Z,9.93
2023-04-12T22:06:53.025Z,9.90
2023-04-12T22:09:23.523Z,9.87
2023-04-12T22:11:50.497Z,9.82
2023-04-12T22:14:17.388Z,9.86
2023-04-12T22:16:45.334Z,9.81
2023-04-12T22:19:13.097Z,9.80
2023-04-12T22:21:40.274Z,9.76
2023-04-12T22:24:08.411Z,9.74
2023-04-12T22:26:35.567Z,9.68
2023-04-12T22:29:03.128Z,9.65
2023-04-12T22:31:48.544Z,9.67
2023-04-12T22:34:35.144Z,9.58
2023-04-12T22:37:03.574Z,9.50
2023-04-12T22:39:51.573Z,9.54
2023-04-12T22:42:20.909Z,9.49
2023-04-12T22:44:49.912Z,9.47
2023-04-12T22:47:35.859Z,9.51
2023-04-12T22:50:08.326Z,9.47
2023-04-12T22:52:47.825Z,9.45
2023-04-12T22:55:33.490Z,9.45
2023-04-12T22:58:01.782Z,9.38
2023-04-12T23:00:30.519Z,9.32
2023-04-12T23:03:34.502Z,9.29
2023-04-12T23:06:02.134Z,9.23
2023-04-12T23:08:29.473Z,9.17
2023-04-12T23:11:02.301Z,9.15
2023-04-12T23:13:35.837Z,9.06
2023-04-12T23:16:06.551Z,8.96
2023-04-12T23:18:33.742Z,8.91
2023-04-12T23:21:04.292Z,8.96
2023-04-12T23:23:37.367Z,8.92
2023-04-12T23:26:04.427Z,8.85
2023-04-12T23:28:31.370Z,8.76
2023-04-12T23:31:01.731Z,8.70
2023-04-12T23:33:29.266Z,8.60
2023-04-12T23:35:56.290Z,8.51
2023-04-12T23:38:26.173Z,8.48
2023-04-12T23:41:12.908Z,8.48
2023-04-12T23:43:40.009Z,8.41
2023-04-12T23:46:07.119Z,8.39
2023-04-12T23:48:35.205Z,8.37
2023-04-12T23:51:02.183Z,8.30
2023-04-12T23:53:47.734Z,8.32
2023-04-12T23:56:16.091Z,8.35
2023-04-12T23:58:43.039Z,8.37
